Time;durP1;ratioP1;P1;durP2;ratioP2;P2;SDS_P1;SDS_P2;PMS_P1;PMS_P2;Temp;Humidity;BMP_temperature;BMP_pressure;BME280_temperature;BME280_humidity;BME280_pressure;Samples;Min_cycle;Max_cycle;Signal;HPM_P1;HPM_P2
2023/04/06 00:02:18;;;;;;;12.70;8.13;;;;;;;;;;4884680;29;20078;-64
2023/04/06 00:04:44;;;;;;;13.10;8.50;;;;;;;;;;4890025;29;20139;-65
2023/04/06 00:07:10;;;;;;;14.15;8.25;;;;;;;;;;4877503;29;20072;-65
2023/04/06 00:09:37;;;;;;;13.15;8.15;;;;;;;;;;4884994;29;20075;-64
2023/04/06 00:12:03;;;;;;;14.15;8.68;;;;;;;;;;4890266;29;20049;-64
2023/04/06 00:14:30;;;;;;;12.27;7.88;;;;;;;;;;4884829;29;20053;-65
2023/04/06 00:16:56;;;;;;;13.38;7.63;;;;;;;;;;4889706;29;20052;-65
2023/04/06 00:19:23;;;;;;;13.40;8.10;;;;;;;;;;4884362;29;20076;-64
2023/04/06 00:21:49;;;;;;;15.23;8.60;;;;;;;;;;4885025;29;20055;-65
2023/04/06 00:24:16;;;;;;;14.52;9.05;;;;;;;;;;4880836;29;20109;-65
2023/04/06 00:26:42;;;;;;;13.27;8.50;;;;;;;;;;4889795;29;20087;-65
2023/04/06 00:29:09;;;;;;;14.50;8.07;;;;;;;;;;4905775;29;20056;-64
2023/04/06 00:31:36;;;;;;;11.35;7.68;;;;;;;;;;4883176;29;20504;-65
2023/04/06 00:34:02;;;;;;;12.75;7.88;;;;;;;;;;4889847;29;20052;-65
2023/04/06 00:36:29;;;;;;;14.20;9.18;;;;;;;;;;4879951;29;20053;-65
2023/04/06 00:38:56;;;;;;;13.38;8.25;;;;;;;;;;4888074;29;20605;-64
2023/04/06 00:41:22;;;;;;;12.02;8.00;;;;;;;;;;4885309;29;20494;-64
2023/04/06 00:43:48;;;;;;;15.27;8.40;;;;;;;;;;4890589;29;20068;-64
2023/04/06 00:46:15;;;;;;;13.52;8.05;;;;;;;;;;4890021;29;20064;-65
2023/04/06 00:48:41;;;;;;;11.93;7.65;;;;;;;;;;4881025;29;20048;-65
2023/04/06 00:51:08;;;;;;;13.80;8.20;;;;;;;;;;4883664;29;20095;-65
2023/04/06 00:53:34;;;;;;;14.85;8.65;;;;;;;;;;4883349;29;20057;-65
2023/04/06 00:56:01;;;;;;;13.88;8.80;;;;;;;;;;4891085;29;20056;-65
2023/04/06 00:58:27;;;;;;;13.63;8.88;;;;;;;;;;4884829;29;20068;-65
2023/04/06 01:00:54;;;;;;;14.00;8.45;;;;;;;;;;4890738;29;20071;-64
2023/04/06 01:03:20;;;;;;;14.93;8.10;;;;;;;;;;4885461;29;20063;-64
2023/04/06 01:05:47;;;;;;;13.40;8.73;;;;;;;;;;4880681;29;20052;-65
2023/04/06 01:08:13;;;;;;;14.30;9.07;;;;;;;;;;4890599;29;20056;-65
2023/04/06 01:10:40;;;;;;;11.30;7.88;;;;;;;;;;4884471;29;20505;-64
2023/04/06 01:13:07;;;;;;;12.80;8.18;;;;;;;;;;4889434;29;20387;-66
2023/04/06 01:15:33;;;;;;;17.52;9.38;;;;;;;;;;4884763;29;20513;-65
2023/04/06 01:18:00;;;;;;;14.27;8.25;;;;;;;;;;4884684;29;20052;-64
2023/04/06 01:20:26;;;;;;;15.25;8.45;;;;;;;;;;4891433;29;20072;-65
2023/04/06 01:22:52;;;;;;;14.77;9.15;;;;;;;;;;4887475;29;20064;-65
2023/04/06 01:25:19;;;;;;;14.68;8.35;;;;;;;;;;4893343;29;20067;-64
2023/04/06 01:27:45;;;;;;;13.98;8.65;;;;;;;;;;4888016;29;20072;-64
2023/04/06 01:30:12;;;;;;;12.95;8.75;;;;;;;;;;4888094;29;20049;-65
2023/04/06 01:32:38;;;;;;;13.50;8.07;;;;;;;;;;4882470;29;20562;-65
2023/04/06 01:35:04;;;;;;;15.82;8.95;;;;;;;;;;4894651;29;20080;-64
2023/04/06 01:37:32;;;;;;;12.40;8.18;;;;;;;;;;4892395;29;20052;-64
2023/04/06 01:39:59;;;;;;;12.35;8.13;;;;;;;;;;4883774;29;20063;-65
2023/04/06 01:42:26;;;;;;;15.43;9.23;;;;;;;;;;4905964;29;20135;-64
2023/04/06 01:44:52;;;;;;;12.75;7.82;;;;;;;;;;4880703;29;20084;-64
2023/04/06 01:47:19;;;;;;;15.10;8.95;;;;;;;;;;4892922;29;20098;-64
2023/04/06 01:49:45;;;;;;;15.57;8.55;;;;;;;;;;4887460;29;20609;-64
2023/04/06 01:52:11;;;;;;;11.02;7.55;;;;;;;;;;4894425;29;20067;-65
2023/04/06 01:54:38;;;;;;;11.70;7.28;;;;;;;;;;4892906;29;20067;-64
2023/04/06 01:57:04;;;;;;;13.88;8.13;;;;;;;;;;4883350;29;20052;-65
2023/04/06 01:59:31;;;;;;;13.10;8.32;;;;;;;;;;4889460;29;20060;-65
2023/04/06 02:01:57;;;;;;;13.43;8.43;;;;;;;;;;4889049;29;20052;-65
2023/04/06 02:04:24;;;;;;;13.65;7.90;;;;;;;;;;4893118;29;20120;-64
2023/04/06 02:06:50;;;;;;;13.20;8.43;;;;;;;;;;4902553;29;20481;-64
2023/04/06 02:09:17;;;;;;;16.65;8.40;;;;;;;;;;4892673;29;20471;-65
2023/04/06 02:11:43;;;;;;;13.30;8.00;;;;;;;;;;4888134;29;20095;-65
2023/04/06 02:14:09;;;;;;;13.73;8.85;;;;;;;;;;4882156;29;20072;-65
2023/04/06 02:16:36;;;;;;;15.15;8.68;;;;;;;;;;4892661;29;20064;-65
2023/04/06 02:19:02;;;;;;;13.75;8.07;;;;;;;;;;4875592;29;20075;-64
2023/04/06 02:21:29;;;;;;;21.25;8.35;;;;;;;;;;4891087;29;20056;-65
2023/04/06 02:23:55;;;;;;;11.25;7.47;;;;;;;;;;4887335;29;20931;-64
2023/04/06 02:26:22;;;;;;;13.00;8.75;;;;;;;;;;4886521;29;20053;-64
2023/04/06 02:28:48;;;;;;;11.82;8.10;;;;;;;;;;4879581;29;20059;-64
2023/04/06 02:31:15;;;;;;;13.73;8.75;;;;;;;;;;4885938;29;20060;-64
2023/04/06 02:33:41;;;;;;;12.55;8.48;;;;;;;;;;4892970;29;20078;-65
2023/04/06 02:36:08;;;;;;;14.00;8.90;;;;;;;;;;4886838;29;20061;-64
2023/04/06 02:38:34;;;;;;;13.32;8.45;;;;;;;;;;4889650;29;20064;-64
2023/04/06 02:41:01;;;;;;;14.07;8.23;;;;;;;;;;4881263;29;20049;-64
2023/04/06 02:43:27;;;;;;;13.70;8.20;;;;;;;;;;4890572;29;20056;-64
2023/04/06 02:45:53;;;;;;;14.95;8.77;;;;;;;;;;4892276;29;20060;-64
2023/04/06 02:48:20;;;;;;;12.55;8.70;;;;;;;;;;4886301;29;20061;-65
2023/04/06 02:50:46;;;;;;;13.52;8.43;;;;;;;;;;4892611;29;20063;-64
2023/04/06 02:53:12;;;;;;;14.10;8.52;;;;;;;;;;4880797;29;20052;-64
2023/04/06 02:55:39;;;;;;;15.25;9.07;;;;;;;;;;4890209;29;20060;-65
2023/04/06 02:58:05;;;;;;;14.73;8.48;;;;;;;;;;4888071;29;20485;-64
2023/04/06 03:00:31;;;;;;;15.95;8.85;;;;;;;;;;4891435;29;20052;-64
2023/04/06 03:02:58;;;;;;;12.75;8.45;;;;;;;;;;4887693;29;20413;-64
2023/04/06 03:05:24;;;;;;;18.45;9.15;;;;;;;;;;4885642;29;20109;-64
2023/04/06 03:07:51;;;;;;;15.75;9.00;;;;;;;;;;4886950;29;20513;-64
2023/04/06 03:10:17;;;;;;;14.75;8.77;;;;;;;;;;4882016;29;20558;-64
2023/04/06 03:12:44;;;;;;;13.25;8.80;;;;;;;;;;4891940;29;20152;-64
2023/04/06 03:15:11;;;;;;;12.15;8.55;;;;;;;;;;4891898;29;20068;-65
2023/04/06 03:17:37;;;;;;;15.43;9.80;;;;;;;;;;4899676;29;20067;-64
2023/04/06 03:20:04;;;;;;;14.45;9.25;;;;;;;;;;4891855;29;20053;-64
2023/04/06 03:22:30;;;;;;;13.45;8.68;;;;;;;;;;4877027;29;20285;-65
2023/04/06 03:24:56;;;;;;;13.80;8.75;;;;;;;;;;4889864;29;20190;-64
2023/04/06 03:27:23;;;;;;;13.35;9.25;;;;;;;;;;4885959;29;20080;-64
2023/04/06 03:29:49;;;;;;;12.32;8.40;;;;;;;;;;4890989;29;20056;-65
2023/04/06 03:32:15;;;;;;;14.25;8.73;;;;;;;;;;4891279;29;20410;-65
2023/04/06 03:34:42;;;;;;;14.43;8.98;;;;;;;;;;4887952;29;20040;-64
2023/04/06 03:37:08;;;;;;;15.52;9.60;;;;;;;;;;4887325;29;20402;-64
2023/04/06 03:39:36;;;;;;;13.77;9.25;;;;;;;;;;4885720;29;20074;-66
2023/04/06 03:42:02;;;;;;;19.15;9.82;;;;;;;;;;4893625;29;20059;-64
2023/04/06 03:44:29;;;;;;;15.82;9.80;;;;;;;;;;4889291;29;20048;-64
2023/04/06 03:46:55;;;;;;;13.88;9.80;;;;;;;;;;4890810;29;20044;-64
2023/04/06 03:49:22;;;;;;;15.73;9.85;;;;;;;;;;4887013;29;20488;-64
2023/04/06 03:51:48;;;;;;;15.35;8.93;;;;;;;;;;4880686;29;20086;-64
2023/04/06 03:54:15;;;;;;;14.90;9.40;;;;;;;;;;4890935;29;20060;-64
2023/04/06 03:56:41;;;;;;;15.60;9.68;;;;;;;;;;4885428;29;20056;-64
2023/04/06 03:59:08;;;;;;;14.25;9.90;;;;;;;;;;4891301;29;20052;-64
2023/04/06 04:01:34;;;;;;;15.45;10.05;;;;;;;;;;4885842;29;20092;-65
2023/04/06 04:04:01;;;;;;;14.30;8.70;;;;;;;;;;4885068;29;20051;-64
2023/04/06 04:06:27;;;;;;;15.25;9.75;;;;;;;;;;4889023;29;20132;-64
2023/04/06 04:08:54;;;;;;;17.38;9.43;;;;;;;;;;4884499;29;20056;-64
2023/04/06 04:11:20;;;;;;;14.65;10.20;;;;;;;;;;4890463;29;20140;-64
2023/04/06 04:13:47;;;;;;;16.38;9.52;;;;;;;;;;4884119;29;20045;-65
2023/04/06 04:16:13;;;;;;;16.52;9.65;;;;;;;;;;4886605;29;20265;-66
2023/04/06 04:18:40;;;;;;;15.88;9.63;;;;;;;;;;4879602;29;20051;-65
2023/04/06 04:21:07;;;;;;;16.65;10.00;;;;;;;;;;4889188;29;20399;-67
2023/04/06 04:23:33;;;;;;;16.92;9.75;;;;;;;;;;4905250;29;20187;-66
2023/04/06 04:26:02;;;;;;;16.48;10.02;;;;;;;;;;4885791;29;20143;-64
2023/04/06 04:28:29;;;;;;;17.38;9.32;;;;;;;;;;4890351;29;20052;-64
2023/04/06 04:30:55;;;;;;;15.23;9.45;;;;;;;;;;4879285;29;20147;-64
2023/04/06 04:33:22;;;;;;;17.52;10.13;;;;;;;;;;4885688;29;20122;-63
2023/04/06 04:35:49;;;;;;;16.17;10.60;;;;;;;;;;4884616;29;20591;-64
2023/04/06 04:38:15;;;;;;;17.50;9.80;;;;;;;;;;4890583;29;20533;-65
2023/04/06 04:40:42;;;;;;;15.65;9.63;;;;;;;;;;4889778;29;20060;-64
2023/04/06 04:43:08;;;;;;;14.85;9.30;;;;;;;;;;4900783;29;20070;-64
2023/04/06 04:45:34;;;;;;;15.25;9.68;;;;;;;;;;4886780;29;20067;-64
2023/04/06 04:48:01;;;;;;;15.48;10.38;;;;;;;;;;4883965;29;20100;-65
2023/04/06 04:50:27;;;;;;;15.93;9.80;;;;;;;;;;4904740;29;20120;-64
2023/04/06 04:52:54;;;;;;;13.95;9.80;;;;;;;;;;4885116;29;20053;-64
2023/04/06 04:55:20;;;;;;;15.48;9.98;;;;;;;;;;4893456;29;20071;-65
2023/04/06 04:57:46;;;;;;;16.17;9.95;;;;;;;;;;4889400;29;20045;-64
2023/04/06 05:00:13;;;;;;;18.27;10.13;;;;;;;;;;4882590;29;20060;-65
2023/04/06 05:02:40;;;;;;;14.95;10.13;;;;;;;;;;4893301;29;20409;-65
2023/04/06 05:05:06;;;;;;;19.40;10.60;;;;;;;;;;4887126;29;20066;-66
2023/04/06 05:07:33;;;;;;;14.90;10.07;;;;;;;;;;4895099;29;20044;-65
2023/04/06 05:10:00;;;;;;;13.45;9.65;;;;;;;;;;4890622;29;20277;-65
2023/04/06 05:12:27;;;;;;;17.02;9.73;;;;;;;;;;4886310;29;20057;-66
2023/04/06 05:14:53;;;;;;;16.50;10.32;;;;;;;;;;4892339;29;20139;-65
2023/04/06 05:17:20;;;;;;;16.55;10.65;;;;;;;;;;4897961;29;20065;-64
2023/04/06 05:19:46;;;;;;;15.25;10.75;;;;;;;;;;4906975;29;20057;-65
2023/04/06 05:22:15;;;;;;;18.08;11.18;;;;;;;;;;4886749;29;20048;-65
2023/04/06 05:24:42;;;;;;;16.55;10.75;;;;;;;;;;4889150;29;20073;-65
2023/04/06 05:27:09;;;;;;;17.95;10.40;;;;;;;;;;4882289;29;20363;-65
2023/04/06 05:29:35;;;;;;;15.00;10.23;;;;;;;;;;4891094;29;20064;-65
2023/04/06 05:32:01;;;;;;;18.30;9.93;;;;;;;;;;4919102;29;20052;-65
2023/04/06 05:34:28;;;;;;;18.25;10.63;;;;;;;;;;4885961;29;20052;-65
2023/04/06 05:36:54;;;;;;;17.52;11.30;;;;;;;;;;4892996;29;20047;-64
2023/04/06 05:39:20;;;;;;;19.38;10.60;;;;;;;;;;4901870;29;20056;-65
2023/04/06 05:41:48;;;;;;;19.60;12.90;;;;;;;;;;4893917;29;20692;-65
2023/04/06 05:44:14;;;;;;;24.38;14.25;;;;;;;;;;4892126;29;20513;-65
2023/04/06 05:46:40;;;;;;;22.58;13.43;;;;;;;;;;4890132;29;20520;-66
2023/04/06 05:49:07;;;;;;;23.02;11.27;;;;;;;;;;4886161;29;20055;-66
2023/04/06 05:51:34;;;;;;;19.08;10.05;;;;;;;;;;4886725;29;20082;-64
2023/04/06 05:54:00;;;;;;;19.42;10.73;;;;;;;;;;4893408;29;20074;-65
2023/04/06 05:56:26;;;;;;;20.77;12.00;;;;;;;;;;4884919;29;20052;-65
2023/04/06 05:58:53;;;;;;;19.27;11.07;;;;;;;;;;4893240;29;20076;-65
2023/04/06 06:01:19;;;;;;;18.73;11.48;;;;;;;;;;4889545;29;20156;-66
2023/04/06 06:03:46;;;;;;;17.55;11.63;;;;;;;;;;4882440;29;20048;-65
2023/04/06 06:06:12;;;;;;;21.77;11.68;;;;;;;;;;4892635;29;20052;-64
2023/04/06 06:08:39;;;;;;;18.95;10.90;;;;;;;;;;4888044;29;20070;-64
2023/04/06 06:11:05;;;;;;;20.50;11.00;;;;;;;;;;4894431;29;20064;-65
2023/04/06 06:13:31;;;;;;;19.50;11.77;;;;;;;;;;4886994;29;20056;-65
2023/04/06 06:15:58;;;;;;;18.25;11.02;;;;;;;;;;4888582;29;20517;-65
2023/04/06 06:18:24;;;;;;;21.50;11.38;;;;;;;;;;4886220;29;20175;-65
2023/04/06 06:20:51;;;;;;;19.65;10.73;;;;;;;;;;4887043;29;20190;-64
2023/04/06 06:23:17;;;;;;;18.65;10.60;;;;;;;;;;4892684;29;20060;-65
2023/04/06 06:25:43;;;;;;;21.10;11.23;;;;;;;;;;4885691;29;20112;-64
2023/04/06 06:28:10;;;;;;;20.17;12.02;;;;;;;;;;4892812;29;20052;-64
2023/04/06 06:30:36;;;;;;;23.30;13.52;;;;;;;;;;4881276;29;20566;-66
2023/04/06 06:33:03;;;;;;;18.65;11.48;;;;;;;;;;4888692;29;20516;-65
2023/04/06 06:35:29;;;;;;;23.42;11.95;;;;;;;;;;4893207;29;20044;-64
2023/04/06 06:37:56;;;;;;;18.17;10.52;;;;;;;;;;4885458;29;20113;-65
2023/04/06 06:40:23;;;;;;;18.85;10.63;;;;;;;;;;4892376;29;20045;-64
2023/04/06 06:42:51;;;;;;;18.17;11.32;;;;;;;;;;4883590;29;20067;-64
2023/04/06 06:45:18;;;;;;;19.88;11.07;;;;;;;;;;4885641;29;20144;-66
2023/04/06 06:47:44;;;;;;;17.50;10.98;;;;;;;;;;4884384;29;20550;-64
2023/04/06 06:50:11;;;;;;;17.95;10.05;;;;;;;;;;4892232;29;20064;-64
2023/04/06 06:52:37;;;;;;;19.92;11.18;;;;;;;;;;4892417;29;20056;-65
2023/04/06 06:55:03;;;;;;;21.67;11.75;;;;;;;;;;4887544;29;20420;-65
2023/04/06 06:57:30;;;;;;;20.42;10.82;;;;;;;;;;4902398;29;20727;-65
2023/04/06 06:59:56;;;;;;;19.98;11.43;;;;;;;;;;4881403;29;20104;-64
2023/04/06 07:02:22;;;;;;;20.02;11.98;;;;;;;;;;4906295;29;20048;-65
2023/04/06 07:04:49;;;;;;;18.35;11.02;;;;;;;;;;4897008;29;20080;-64
2023/04/06 07:07:16;;;;;;;18.73;12.30;;;;;;;;;;4891022;29;20080;-66
2023/04/06 07:09:42;;;;;;;21.33;11.63;;;;;;;;;;4891459;29;20048;-65
2023/04/06 07:12:08;;;;;;;20.35;11.38;;;;;;;;;;4882068;29;20063;-65
2023/04/06 07:14:36;;;;;;;19.58;11.63;;;;;;;;;;4886248;29;20041;-65
2023/04/06 07:17:03;;;;;;;19.92;11.75;;;;;;;;;;4884881;29;20048;-65
2023/04/06 07:19:29;;;;;;;19.73;11.75;;;;;;;;;;4892010;29;20131;-64
2023/04/06 07:21:56;;;;;;;25.77;12.20;;;;;;;;;;4883894;29;20049;-66
2023/04/06 07:24:22;;;;;;;22.00;11.25;;;;;;;;;;4890982;29;20124;-65
2023/04/06 07:26:49;;;;;;;19.33;11.77;;;;;;;;;;4890107;29;20139;-65
2023/04/06 07:29:15;;;;;;;21.73;10.80;;;;;;;;;;4884524;29;20056;-66
2023/04/06 07:31:41;;;;;;;21.60;11.95;;;;;;;;;;4891308;29;20088;-65
2023/04/06 07:34:08;;;;;;;18.98;10.82;;;;;;;;;;4885857;29;20103;-65
2023/04/06 07:36:34;;;;;;;18.15;11.00;;;;;;;;;;4892149;29;20053;-65
2023/04/06 07:39:01;;;;;;;19.55;11.52;;;;;;;;;;4883460;29;20087;-65
2023/04/06 07:41:30;;;;;;;21.83;11.00;;;;;;;;;;4888187;29;20060;-66
2023/04/06 07:43:57;;;;;;;23.75;12.45;;;;;;;;;;4883876;29;20060;-67
2023/04/06 07:46:23;;;;;;;22.40;10.50;;;;;;;;;;4885730;29;20565;-65
2023/04/06 07:48:50;;;;;;;16.67;11.50;;;;;;;;;;4890890;29;20059;-65
2023/04/06 07:51:17;;;;;;;21.67;11.55;;;;;;;;;;4884893;29;20501;-66
2023/04/06 07:53:44;;;;;;;18.25;11.18;;;;;;;;;;4887003;29;20052;-66
2023/04/06 07:56:12;;;;;;;20.55;11.93;;;;;;;;;;4881093;29;20057;-65
2023/04/06 07:58:38;;;;;;;19.88;11.52;;;;;;;;;;4890284;29;20308;-65
2023/04/06 08:01:05;;;;;;;21.08;10.80;;;;;;;;;;4891646;29;20561;-68
2023/04/06 08:03:33;;;;;;;23.17;11.68;;;;;;;;;;4884897;29;20071;-67
2023/04/06 08:06:02;;;;;;;16.25;10.18;;;;;;;;;;4883978;29;20057;-65
2023/04/06 08:08:28;;;;;;;19.88;10.65;;;;;;;;;;4879320;29;20458;-65
2023/04/06 08:10:55;;;;;;;18.23;11.25;;;;;;;;;;4889736;29;20056;-65
2023/04/06 08:13:21;;;;;;;19.10;11.48;;;;;;;;;;4884893;29;20056;-65
2023/04/06 08:15:47;;;;;;;20.95;11.50;;;;;;;;;;4889512;29;20163;-66
2023/04/06 08:18:14;;;;;;;19.98;10.93;;;;;;;;;;4891022;29;20139;-65
2023/04/06 08:20:40;;;;;;;19.30;10.95;;;;;;;;;;4880712;29;20581;-66
2023/04/06 08:23:09;;;;;;;20.38;10.90;;;;;;;;;;4886012;29;20068;-66
2023/04/06 08:25:35;;;;;;;21.13;11.10;;;;;;;;;;4884858;29;20045;-65
2023/04/06 08:28:02;;;;;;;19.92;11.32;;;;;;;;;;4891263;29;20057;-67
2023/04/06 08:30:28;;;;;;;19.60;11.50;;;;;;;;;;4893781;29;20059;-67
2023/04/06 08:32:55;;;;;;;18.88;11.60;;;;;;;;;;4888375;29;20053;-65
2023/04/06 08:35:21;;;;;;;22.77;11.88;;;;;;;;;;4890558;29;20124;-66
2023/04/06 08:37:48;;;;;;;22.65;12.43;;;;;;;;;;4886123;29;20092;-66
2023/04/06 08:40:14;;;;;;;23.77;13.07;;;;;;;;;;4894619;29;20056;-66
2023/04/06 08:42:46;;;;;;;18.90;10.70;;;;;;;;;;4888897;29;20072;-65
2023/04/06 08:45:13;;;;;;;19.85;11.90;;;;;;;;;;4894676;29;20462;-65
2023/04/06 08:47:40;;;;;;;19.92;11.90;;;;;;;;;;4890773;29;20048;-66
2023/04/06 08:50:07;;;;;;;20.60;12.38;;;;;;;;;;4881991;29;20080;-66
2023/04/06 08:52:34;;;;;;;23.52;12.40;;;;;;;;;;4894562;29;20055;-67
2023/04/06 08:55:00;;;;;;;20.30;12.25;;;;;;;;;;4888789;29;20056;-66
2023/04/06 08:57:27;;;;;;;21.45;13.00;;;;;;;;;;4893935;29;20064;-67
2023/04/06 08:59:53;;;;;;;21.45;12.15;;;;;;;;;;4887648;29;20516;-65
2023/04/06 09:02:20;;;;;;;28.10;12.80;;;;;;;;;;4890126;29;20055;-66
2023/04/06 09:04:47;;;;;;;20.30;13.13;;;;;;;;;;4888414;29;20116;-65
2023/04/06 09:07:15;;;;;;;19.20;12.48;;;;;;;;;;4888045;29;20058;-66
2023/04/06 09:09:47;;;;;;;21.60;12.65;;;;;;;;;;4893934;29;20139;-66
2023/04/06 09:12:24;;;;;;;19.25;12.13;;;;;;;;;;4888076;29;20143;-66
2023/04/06 09:14:50;;;;;;;17.63;11.63;;;;;;;;;;4892048;29;20055;-66
2023/04/06 09:17:20;;;;;;;22.05;12.63;;;;;;;;;;4882361;29;20048;-66
2023/04/06 09:19:47;;;;;;;23.30;14.57;;;;;;;;;;4888699;29;20160;-66
2023/04/06 09:22:13;;;;;;;22.55;12.98;;;;;;;;;;4886306;29;20057;-66
2023/04/06 09:24:47;;;;;;;24.58;13.25;;;;;;;;;;4892652;29;20455;-66
2023/04/06 09:27:13;;;;;;;21.40;13.10;;;;;;;;;;4893345;29;20064;-66
2023/04/06 09:29:43;;;;;;;28.02;13.98;;;;;;;;;;4881756;29;20049;-66
2023/04/06 09:32:10;;;;;;;18.63;12.52;;;;;;;;;;4889313;29;20048;-66
2023/04/06 09:34:39;;;;;;;20.73;12.38;;;;;;;;;;4887383;29;20055;-66
2023/04/06 09:37:13;;;;;;;23.25;13.32;;;;;;;;;;4894402;29;20059;-66
2023/04/06 09:39:39;;;;;;;18.10;12.65;;;;;;;;;;4885739;29;20081;-66
2023/04/06 09:42:05;;;;;;;21.80;12.57;;;;;;;;;;4894110;29;20466;-65
2023/04/06 09:44:32;;;;;;;26.08;13.40;;;;;;;;;;4889293;29;20056;-66
2023/04/06 09:46:58;;;;;;;19.52;12.90;;;;;;;;;;4882892;29;20060;-67
2023/04/06 09:49:30;;;;;;;20.35;12.68;;;;;;;;;;4893132;29;20052;-65
2023/04/06 09:52:01;;;;;;;22.02;13.90;;;;;;;;;;4888167;29;20056;-65
2023/04/06 09:54:28;;;;;;;24.58;14.45;;;;;;;;;;4893926;29;20048;-67
2023/04/06 09:57:08;;;;;;;24.70;14.20;;;;;;;;;;4887096;29;20151;-68
2023/04/06 09:59:42;;;;;;;27.95;13.75;;;;;;;;;;4885516;29;20061;-67
2023/04/06 10:02:11;;;;;;;24.52;13.90;;;;;;;;;;4889423;29;20092;-66
2023/04/06 10:04:42;;;;;;;29.10;15.65;;;;;;;;;;4895163;29;20100;-66
2023/04/06 10:07:10;;;;;;;24.20;14.32;;;;;;;;;;4894590;29;20466;-66
2023/04/06 10:09:37;;;;;;;23.95;14.43;;;;;;;;;;4889976;29;20056;-66
2023/04/06 10:12:05;;;;;;;26.73;15.07;;;;;;;;;;4905773;29;20040;-65
2023/04/06 10:14:33;;;;;;;24.88;14.43;;;;;;;;;;4897157;29;20096;-65
2023/04/06 10:17:00;;;;;;;23.30;13.27;;;;;;;;;;4895992;29;20056;-67
2023/04/06 10:19:31;;;;;;;24.77;14.20;;;;;;;;;;4889241;29;20056;-65
2023/04/06 10:21:59;;;;;;;21.38;13.35;;;;;;;;;;4892336;29;20053;-66
2023/04/06 10:24:25;;;;;;;21.10;12.57;;;;;;;;;;4892888;29;20056;-67
2023/04/06 10:26:58;;;;;;;20.17;12.95;;;;;;;;;;4876230;29;20056;-65
2023/04/06 10:29:24;;;;;;;25.75;13.40;;;;;;;;;;4889960;29;20048;-65
2023/04/06 10:31:50;;;;;;;22.55;12.98;;;;;;;;;;4885533;29;20045;-66
2023/04/06 10:34:17;;;;;;;27.95;13.40;;;;;;;;;;4892405;29;20589;-67
2023/04/06 10:36:43;;;;;;;28.50;12.57;;;;;;;;;;4885366;29;20056;-65
2023/04/06 10:39:10;;;;;;;21.98;12.40;;;;;;;;;;4889845;29;20063;-66
2023/04/06 10:41:41;;;;;;;21.60;12.80;;;;;;;;;;4880330;29;20064;-67
2023/04/06 10:44:07;;;;;;;22.48;12.95;;;;;;;;;;4891304;29;20052;-66
2023/04/06 10:46:34;;;;;;;19.70;12.35;;;;;;;;;;4891426;29;20067;-67
2023/04/06 10:49:12;;;;;;;25.20;12.75;;;;;;;;;;4887346;29;20048;-66
2023/04/06 10:51:38;;;;;;;19.95;12.93;;;;;;;;;;4892770;29;20057;-65
2023/04/06 10:54:06;;;;;;;21.17;12.00;;;;;;;;;;4881808;29;20459;-65
2023/04/06 10:56:36;;;;;;;19.92;12.23;;;;;;;;;;4887772;29;20052;-66
2023/04/06 10:59:06;;;;;;;21.33;11.82;;;;;;;;;;4885890;29;20148;-66
2023/04/06 11:01:32;;;;;;;20.20;11.07;;;;;;;;;;4905945;29;20382;-66
2023/04/06 11:03:59;;;;;;;20.52;11.27;;;;;;;;;;4890910;29;20076;-66
2023/04/06 11:06:26;;;;;;;20.92;11.73;;;;;;;;;;4884256;29;20143;-64
2023/04/06 11:08:55;;;;;;;20.70;11.75;;;;;;;;;;4886797;29;20056;-64
2023/04/06 11:11:21;;;;;;;;;;;;;;;;;;4876040;29;20053;-64
2023/04/06 11:13:51;;;;;;;17.42;11.73;;;;;;;;;;4890119;29;19983;-65
2023/04/06 11:16:25;;;;;;;19.67;13.10;;;;;;;;;;4885962;29;20060;-64
2023/04/06 11:18:52;;;;;;;20.95;11.30;;;;;;;;;;4890688;29;20067;-64
2023/04/06 11:21:19;;;;;;;16.90;11.60;;;;;;;;;;4885129;29;20385;-66
2023/04/06 11:23:46;;;;;;;20.10;11.75;;;;;;;;;;4880605;29;20131;-64
2023/04/06 11:26:13;;;;;;;18.35;10.88;;;;;;;;;;4890694;29;20053;-65
2023/04/06 11:28:41;;;;;;;16.25;10.80;;;;;;;;;;4883127;29;20064;-65
2023/04/06 11:31:08;;;;;;;19.40;11.15;;;;;;;;;;4906521;29;20052;-65
2023/04/06 11:33:36;;;;;;;16.70;10.68;;;;;;;;;;4886012;29;20056;-64
2023/04/06 11:36:02;;;;;;;17.60;11.98;;;;;;;;;;4885268;29;20183;-63
2023/04/06 11:38:29;;;;;;;14.30;9.57;;;;;;;;;;4880978;29;20109;-64
2023/04/06 11:40:56;;;;;;;16.48;9.48;;;;;;;;;;4889172;29;20950;-65
2023/04/06 11:43:29;;;;;;;14.15;9.48;;;;;;;;;;4891259;29;20068;-64
2023/04/06 11:46:02;;;;;;;14.07;9.05;;;;;;;;;;4883282;29;20040;-65
2023/04/06 11:48:29;;;;;;;14.95;9.10;;;;;;;;;;4904728;29;20091;-65
2023/04/06 11:50:56;;;;;;;16.58;9.75;;;;;;;;;;4879740;29;20403;-65
2023/04/06 11:53:23;;;;;;;13.30;9.37;;;;;;;;;;4885730;29;20056;-65
2023/04/06 11:55:49;;;;;;;17.27;8.95;;;;;;;;;;4884507;29;20631;-65
2023/04/06 11:58:16;;;;;;;16.38;9.90;;;;;;;;;;4889477;29;20053;-65
2023/04/06 12:00:45;;;;;;;14.50;9.15;;;;;;;;;;4890144;29;20067;-65
2023/04/06 12:03:13;;;;;;;14.55;9.75;;;;;;;;;;4882192;29;20072;-65
2023/04/06 12:05:39;;;;;;;11.98;7.80;;;;;;;;;;4882684;29;20766;-66
2023/04/06 12:08:06;;;;;;;11.48;7.88;;;;;;;;;;4884765;29;20060;-65
2023/04/06 12:10:32;;;;;;;12.18;8.18;;;;;;;;;;4890414;29;20142;-65
2023/04/06 12:12:59;;;;;;;14.63;8.38;;;;;;;;;;4883751;29;20048;-65
2023/04/06 12:15:25;;;;;;;14.57;9.20;;;;;;;;;;4889424;29;20053;-66
2023/04/06 12:17:51;;;;;;;15.90;8.18;;;;;;;;;;4885695;29;20049;-64
2023/04/06 12:20:18;;;;;;;14.95;9.60;;;;;;;;;;4893767;29;20472;-64
2023/04/06 12:22:52;;;;;;;13.02;8.27;;;;;;;;;;4888961;29;20049;-64
2023/04/06 12:25:19;;;;;;;14.55;8.93;;;;;;;;;;4883919;29;20152;-65
2023/04/06 12:27:45;;;;;;;15.63;8.75;;;;;;;;;;4889192;29;20438;-65
2023/04/06 12:30:12;;;;;;;14.80;8.05;;;;;;;;;;4884873;29;20065;-64
2023/04/06 12:32:38;;;;;;;16.17;8.90;;;;;;;;;;4883906;29;20135;-64
2023/04/06 12:35:05;;;;;;;12.73;8.15;;;;;;;;;;4885910;29;20080;-65
2023/04/06 12:37:31;;;;;;;13.50;8.40;;;;;;;;;;4883881;29;20061;-64
2023/04/06 12:39:58;;;;;;;11.15;7.13;;;;;;;;;;4889116;29;20064;-64
2023/04/06 12:42:24;;;;;;;13.10;7.05;;;;;;;;;;4887166;29;20064;-64
2023/04/06 12:44:50;;;;;;;11.93;5.93;;;;;;;;;;4889479;29;20048;-64
2023/04/06 12:47:17;;;;;;;8.65;5.32;;;;;;;;;;4877728;29;20048;-64
2023/04/06 12:49:44;;;;;;;9.38;5.93;;;;;;;;;;4887538;29;20147;-64
2023/04/06 12:52:10;;;;;;;8.45;4.97;;;;;;;;;;4890270;29;20203;-64
2023/04/06 12:54:37;;;;;;;9.75;5.70;;;;;;;;;;4898012;29;20045;-67
2023/04/06 12:57:03;;;;;;;10.18;5.82;;;;;;;;;;4889862;29;20148;-63
2023/04/06 12:59:34;;;;;;;10.30;6.50;;;;;;;;;;4880759;29;20053;-64
2023/04/06 13:02:01;;;;;;;9.93;5.93;;;;;;;;;;4883917;29;20087;-63
2023/04/06 13:04:27;;;;;;;10.57;6.25;;;;;;;;;;4884203;29;20102;-64
2023/04/06 13:06:53;;;;;;;11.98;5.93;;;;;;;;;;4889842;29;20064;-63
2023/04/06 13:09:20;;;;;;;10.95;6.07;;;;;;;;;;4890245;29;20132;-64
2023/04/06 13:11:46;;;;;;;8.27;5.43;;;;;;;;;;4884661;29;20843;-64
2023/04/06 13:14:13;;;;;;;10.82;5.55;;;;;;;;;;4885881;29;20131;-64
2023/04/06 13:16:40;;;;;;;10.02;5.80;;;;;;;;;;4880192;29;20538;-64
2023/04/06 13:19:06;;;;;;;10.50;5.47;;;;;;;;;;4890762;29;20045;-64
2023/04/06 13:21:33;;;;;;;10.18;6.43;;;;;;;;;;4884594;29;20049;-64
2023/04/06 13:23:59;;;;;;;10.65;5.97;;;;;;;;;;4889443;29;20053;-64
2023/04/06 13:26:26;;;;;;;12.15;6.47;;;;;;;;;;4891147;29;20368;-64
2023/04/06 13:28:52;;;;;;;9.48;5.32;;;;;;;;;;4882658;29;20063;-64
2023/04/06 13:31:19;;;;;;;9.23;6.00;;;;;;;;;;4888241;29;20053;-63
2023/04/06 13:33:45;;;;;;;9.43;5.72;;;;;;;;;;4887005;29;20063;-63
2023/04/06 13:36:12;;;;;;;9.60;5.75;;;;;;;;;;4896592;29;20164;-64
2023/04/06 13:38:41;;;;;;;10.10;5.80;;;;;;;;;;4885708;29;20057;-66
2023/04/06 13:41:07;;;;;;;11.63;6.55;;;;;;;;;;4889576;29;20530;-66
2023/04/06 13:43:34;;;;;;;11.50;7.45;;;;;;;;;;4887953;29;20060;-66
2023/04/06 13:46:01;;;;;;;12.02;6.57;;;;;;;;;;4885016;29;20068;-67
2023/04/06 13:48:27;;;;;;;10.50;7.18;;;;;;;;;;4893388;29;20057;-66
2023/04/06 13:50:53;;;;;;;11.15;6.68;;;;;;;;;;4885677;29;20116;-66
2023/04/06 13:53:20;;;;;;;10.50;6.68;;;;;;;;;;4893275;29;20052;-66
2023/04/06 13:55:55;;;;;;;12.07;6.70;;;;;;;;;;4881938;29;20053;-65
2023/04/06 13:58:22;;;;;;;13.75;6.95;;;;;;;;;;4888554;29;20057;-66
2023/04/06 14:00:48;;;;;;;13.25;8.25;;;;;;;;;;4891651;29;20044;-65
2023/04/06 14:03:15;;;;;;;13.48;7.97;;;;;;;;;;4886581;29;20502;-66
2023/04/06 14:05:41;;;;;;;11.98;7.50;;;;;;;;;;4891928;29;20080;-65
2023/04/06 14:08:07;;;;;;;18.40;7.63;;;;;;;;;;4886126;29;20081;-65
2023/04/06 14:10:38;;;;;;;16.20;9.02;;;;;;;;;;4888474;29;20498;-66
2023/04/06 14:13:04;;;;;;;11.18;6.78;;;;;;;;;;4892450;29;20049;-65
2023/04/06 14:15:30;;;;;;;12.00;8.00;;;;;;;;;;4892043;29;20492;-65
2023/04/06 14:17:57;;;;;;;13.18;7.93;;;;;;;;;;4891653;29;20052;-67
2023/04/06 14:20:23;;;;;;;12.40;7.40;;;;;;;;;;4881026;29;20080;-67
2023/04/06 14:22:52;;;;;;;11.68;7.03;;;;;;;;;;4888298;29;20056;-66
2023/04/06 14:25:18;;;;;;;;;;;;;;;;;;4880421;29;20099;-67